Time;durP1;ratioP1;P1;durP2;ratioP2;P2;SDS_P1;SDS_P2;PMS_P1;PMS_P2;Temp;Humidity;BMP_temperature;BMP_pressure;BME280_temperature;BME280_humidity;BME280_pressure;Samples;Min_cycle;Max_cycle;Signal;HPM_P1;HPM_P2
2023/06/22 00:01:01;;;;;;;8.35;4.93;;;;;;;19.60;61.43;94390.69;4929140;29;20024;-72
2023/06/22 00:03:27;;;;;;;9.88;5.88;;;;;;;19.55;61.46;94382.09;4928836;29;20032;-72
2023/06/22 00:05:53;;;;;;;7.43;5.78;;;;;;;19.50;61.41;94385.06;4928797;29;20020;-72
2023/06/22 00:08:19;;;;;;;7.80;5.15;;;;;;;19.48;61.95;94381.94;4928680;29;20020;-72
2023/06/22 00:10:45;;;;;;;9.40;5.55;;;;;;;19.40;61.93;94381.81;4929109;29;20020;-74
2023/06/22 00:13:12;;;;;;;9.20;5.60;;;;;;;19.33;62.00;94373.56;4928933;29;20310;-71
2023/06/22 00:15:39;;;;;;;9.73;5.10;;;;;;;19.28;62.20;94373.84;4928665;29;20024;-71
2023/06/22 00:18:09;;;;;;;12.23;5.38;;;;;;;19.28;61.70;94375.78;4928459;29;20059;-72
2023/06/22 00:20:36;;;;;;;12.05;5.78;;;;;;;19.25;61.67;94371.84;4928420;29;20032;-73
2023/06/22 00:23:08;;;;;;;8.00;5.20;;;;;;;19.17;62.11;94370.94;4928824;29;20054;-72
2023/06/22 00:25:39;;;;;;;9.45;4.97;;;;;;;19.14;62.65;94362.75;4928675;29;20394;-71
2023/06/22 00:28:05;;;;;;;8.27;5.70;;;;;;;19.12;62.74;94355.00;4928714;29;20028;-71
2023/06/22 00:30:32;;;;;;;8.77;4.78;;;;;;;19.06;63.19;94347.53;4928793;29;20042;-72
2023/06/22 00:32:58;;;;;;;13.45;5.63;;;;;;;19.01;62.90;94343.97;4928634;29;20028;-71
2023/06/22 00:35:28;;;;;;;9.45;5.30;;;;;;;19.02;63.36;94342.06;4928719;29;20087;-71
2023/06/22 00:38:00;;;;;;;8.88;4.97;;;;;;;18.94;63.52;94351.91;4928464;29;20123;-72
2023/06/22 00:40:26;;;;;;;17.27;5.75;;;;;;;18.86;63.84;94350.22;4911506;29;20036;-72
2023/06/22 00:42:51;;;;;;;10.32;5.28;;;;;;;18.84;63.15;94345.16;4928405;29;20032;-72
2023/06/22 00:45:17;;;;;;;12.35;5.25;;;;;;;18.80;63.08;94346.22;4928052;29;20034;-72
2023/06/22 00:47:44;;;;;;;10.40;5.40;;;;;;;18.74;64.10;94344.91;4928063;29;20031;-72
2023/06/22 00:50:18;;;;;;;11.60;5.70;;;;;;;18.76;63.90;94348.81;4928380;29;20218;-72
2023/06/22 00:52:46;;;;;;;12.05;4.90;;;;;;;18.75;63.89;94351.88;4928260;29;20079;-72
2023/06/22 00:55:11;;;;;;;9.07;5.85;;;;;;;18.65;64.14;94348.56;4928061;29;20059;-72
2023/06/22 00:57:37;;;;;;;8.75;5.68;;;;;;;18.66;64.02;94349.34;4927855;29;20378;-73
2023/06/22 01:00:07;;;;;;;10.13;5.60;;;;;;;18.58;64.42;94343.03;4928199;29;20072;-73
2023/06/22 01:02:33;;;;;;;14.60;5.00;;;;;;;18.60;64.40;94354.28;4928206;29;20083;-73
2023/06/22 01:04:59;;;;;;;8.15;5.00;;;;;;;18.61;63.53;94358.50;4927685;29;20062;-73
2023/06/22 01:07:39;;;;;;;10.55;4.88;;;;;;;18.57;63.13;94367.69;4928052;29;20036;-73
2023/06/22 01:10:14;;;;;;;10.07;5.35;;;;;;;18.55;63.70;94369.94;4928182;29;20024;-73
2023/06/22 01:12:53;;;;;;;8.35;5.70;;;;;;;18.58;63.39;94355.72;4928023;29;20019;-73
2023/06/22 01:15:45;;;;;;;12.02;5.15;;;;;;;18.57;62.87;94354.19;4928167;29;20039;-73
2023/06/22 01:18:13;;;;;;;12.15;4.97;;;;;;;18.52;62.69;94357.94;4928026;29;20068;-73
2023/06/22 01:20:39;;;;;;;9.98;5.70;;;;;;;18.46;62.87;94362.03;4927626;29;20055;-73
2023/06/22 01:23:35;;;;;;;9.13;5.53;;;;;;;18.37;63.28;94366.81;4927593;29;20042;-73
2023/06/22 01:26:10;;;;;;;7.95;5.38;;;;;;;18.31;64.00;94368.22;4927705;29;20130;-73
2023/06/22 01:28:38;;;;;;;12.95;5.75;;;;;;;18.30;63.94;94359.34;4927669;29;20027;-73
2023/06/22 01:31:05;;;;;;;8.88;5.68;;;;;;;18.37;64.08;94358.72;4927408;29;20055;-73
2023/06/22 01:33:39;;;;;;;10.55;6.20;;;;;;;18.40;64.70;94368.84;4927639;29;20028;-73
2023/06/22 01:36:06;;;;;;;11.48;5.22;;;;;;;18.38;65.52;94373.81;4927393;29;20059;-73
2023/06/22 01:38:33;;;;;;;10.40;6.00;;;;;;;18.37;65.58;94372.22;4927320;29;20036;-72
2023/06/22 01:40:59;;;;;;;8.55;6.22;;;;;;;18.40;65.64;94374.25;4927450;29;20052;-73
2023/06/22 01:43:26;;;;;;;12.00;6.32;;;;;;;18.43;66.26;94377.00;4927366;29;20028;-72
2023/06/22 01:46:15;;;;;;;12.80;6.20;;;;;;;18.31;65.74;94379.78;4926563;29;20024;-72
2023/06/22 01:48:40;;;;;;;13.68;6.55;;;;;;;18.28;65.48;94374.31;4926074;29;20031;-72
2023/06/22 01:51:06;;;;;;;9.70;6.47;;;;;;;18.35;66.56;94379.88;4925627;29;20020;-72
2023/06/22 01:53:32;;;;;;;11.80;5.70;;;;;;;18.31;65.08;94376.31;4926473;29;20266;-72
2023/06/22 01:55:58;;;;;;;8.30;5.88;;;;;;;18.20;65.15;94382.25;4926959;29;20020;-72
2023/06/22 01:58:27;;;;;;;8.82;5.30;;;;;;;18.17;65.27;94388.31;4910226;29;20032;-72
2023/06/22 02:01:14;;;;;;;10.68;6.93;;;;;;;18.17;65.89;94376.75;4926671;29;20024;-72
2023/06/22 02:03:48;;;;;;;15.60;8.48;;;;;;;18.18;66.30;94379.13;4926971;29;20024;-72
2023/06/22 02:06:23;;;;;;;10.10;7.05;;;;;;;18.16;66.70;94384.06;4926798;29;20318;-72
2023/06/22 02:08:55;;;;;;;14.93;6.93;;;;;;;18.14;66.82;94389.03;4927225;29;20035;-72
2023/06/22 02:11:22;;;;;;;9.88;7.03;;;;;;;18.13;67.01;94394.75;4927126;29;20091;-72
2023/06/22 02:13:49;;;;;;;12.77;7.22;;;;;;;18.09;67.02;94399.28;4926978;29;20263;-72
2023/06/22 02:16:16;;;;;;;9.73;6.75;;;;;;;18.10;67.46;94390.09;4925907;29;20349;-72
2023/06/22 02:18:51;;;;;;;13.18;7.03;;;;;;;18.06;67.55;94379.19;4926721;29;20051;-72
2023/06/22 02:21:20;;;;;;;11.23;7.45;;;;;;;18.08;67.78;94382.34;4926371;29;20035;-72
2023/06/22 02:23:46;;;;;;;16.33;8.02;;;;;;;18.09;67.83;94381.19;4926508;29;20076;-71
2023/06/22 02:26:12;;;;;;;10.70;7.22;;;;;;;18.11;67.60;94376.22;4926398;29;20036;-71
2023/06/22 02:28:37;;;;;;;12.75;7.28;;;;;;;18.10;68.01;94377.38;4926455;29;20111;-72
2023/06/22 02:31:03;;;;;;;12.82;7.65;;;;;;;18.10;68.22;94380.06;4926659;29;20032;-72
2023/06/22 02:33:28;;;;;;;10.82;7.07;;;;;;;18.13;68.34;94376.66;4926246;29;20030;-71
2023/06/22 02:35:54;;;;;;;11.23;7.68;;;;;;;18.17;68.10;94379.44;4926352;29;20036;-71
2023/06/22 02:38:19;;;;;;;11.88;7.18;;;;;;;18.20;68.22;94371.44;4926238;29;20055;-71
2023/06/22 02:40:45;;;;;;;13.45;7.80;;;;;;;18.20;68.31;94376.84;4926421;29;20048;-72
2023/06/22 02:43:11;;;;;;;21.13;7.97;;;;;;;18.19;68.85;94371.78;4926554;29;20028;-72
2023/06/22 02:45:36;;;;;;;12.07;8.00;;;;;;;18.22;68.48;94384.59;4926053;29;20028;-72
2023/06/22 02:48:02;;;;;;;15.15;9.00;;;;;;;18.25;68.45;94378.50;4926572;29;20333;-72
2023/06/22 02:50:27;;;;;;;11.57;8.43;;;;;;;18.24;68.44;94377.72;4926199;29;20072;-71
2023/06/22 02:52:53;;;;;;;11.38;7.70;;;;;;;18.20;68.82;94382.25;4926181;29;20068;-71
2023/06/22 02:55:18;;;;;;;13.60;8.75;;;;;;;18.25;68.39;94383.88;4926171;29;20148;-71
2023/06/22 02:57:45;;;;;;;16.63;8.20;;;;;;;18.27;68.71;94384.31;4926394;29;20047;-72
2023/06/22 03:00:17;;;;;;;15.63;8.15;;;;;;;18.29;68.98;94383.97;4926184;29;20118;-72
2023/06/22 03:02:47;;;;;;;;;;;;;;;18.30;69.59;94390.94;4926716;29;20028;-73
2023/06/22 03:05:13;;;;;;;17.95;8.77;;;;;;;18.22;69.69;94388.06;4926238;29;20105;-71
2023/06/22 03:07:43;;;;;;;14.23;8.50;;;;;;;18.20;70.10;94376.84;4925966;29;20144;-71
2023/06/22 03:10:13;;;;;;;13.63;8.10;;;;;;;18.21;70.27;94377.63;4909321;29;20062;-72
2023/06/22 03:12:40;;;;;;;11.68;7.60;;;;;;;18.21;70.49;94383.78;4925995;29;20036;-71
2023/06/22 03:15:07;;;;;;;22.42;8.65;;;;;;;18.21;70.22;94391.88;4925921;29;20058;-72
2023/06/22 03:17:34;;;;;;;13.93;8.27;;;;;;;18.18;70.30;94392.59;4926149;29;20028;-71
2023/06/22 03:20:00;;;;;;;14.60;8.63;;;;;;;18.19;70.22;94399.53;4925963;29;20259;-72
2023/06/22 03:22:25;;;;;;;12.13;8.07;;;;;;;18.21;70.71;94405.38;4925724;29;20087;-71
2023/06/22 03:24:51;;;;;;;16.35;8.68;;;;;;;18.24;70.93;94414.72;4925287;29;20028;-71
2023/06/22 03:27:16;;;;;;;17.23;8.52;;;;;;;18.23;70.66;94408.50;4924505;29;20076;-72
2023/06/22 03:29:42;;;;;;;17.90;9.07;;;;;;;18.23;70.49;94411.22;4929287;29;20031;-71
2023/06/22 03:32:07;;;;;;;36.67;9.93;;;;;;;18.23;70.26;94416.59;4929138;29;20100;-71
2023/06/22 03:34:34;;;;;;;21.58;9.40;;;;;;;18.28;70.03;94417.47;4929557;29;20187;-71
2023/06/22 03:37:00;;;;;;;17.73;9.93;;;;;;;18.30;69.64;94417.91;4929223;29;20119;-72
2023/06/22 03:39:25;;;;;;;12.93;8.23;;;;;;;18.24;69.37;94414.72;4929408;29;20031;-72
2023/06/22 03:41:50;;;;;;;19.08;8.45;;;;;;;18.21;69.84;94421.56;4929404;29;20043;-71
2023/06/22 03:44:16;;;;;;;13.55;8.25;;;;;;;18.22;70.34;94428.53;4929429;29;20151;-71
2023/06/22 03:46:41;;;;;;;17.00;9.02;;;;;;;18.25;69.97;94427.84;4929487;29;20024;-72
2023/06/22 03:49:07;;;;;;;19.15;9.27;;;;;;;18.27;70.60;94427.50;4929416;29;20322;-72
2023/06/22 03:51:33;;;;;;;14.73;9.27;;;;;;;18.22;70.47;94439.34;4928903;29;20024;-72
2023/06/22 03:53:58;;;;;;;14.55;9.07;;;;;;;18.21;70.90;94432.34;4929078;29;20036;-72
2023/06/22 03:56:23;;;;;;;17.17;9.30;;;;;;;18.20;71.65;94432.72;4929320;29;20098;-72
2023/06/22 03:58:49;;;;;;;21.67;9.77;;;;;;;18.23;72.13;94440.88;4929197;29;20226;-72
2023/06/22 04:01:16;;;;;;;16.92;8.52;;;;;;;18.20;72.64;94441.59;4929161;29;20040;-72
2023/06/22 04:03:42;;;;;;;17.20;9.25;;;;;;;18.15;72.37;94431.03;4929018;29;20034;-72
2023/06/22 04:06:08;;;;;;;15.45;9.52;;;;;;;18.16;72.52;94442.66;4929222;29;20024;-73
2023/06/22 04:08:34;;;;;;;22.40;9.55;;;;;;;18.18;71.82;94449.25;4929254;29;20318;-72
2023/06/22 04:10:59;;;;;;;13.80;8.73;;;;;;;18.24;72.02;94442.47;4928995;29;20024;-72
2023/06/22 04:13:24;;;;;;;17.17;9.30;;;;;;;18.25;71.96;94441.31;4928786;29;20370;-72
2023/06/22 04:15:50;;;;;;;18.33;10.02;;;;;;;18.28;71.75;94434.47;4928791;29;20027;-72
2023/06/22 04:18:15;;;;;;;19.15;9.60;;;;;;;18.35;71.74;94420.38;4928890;29;20052;-72
2023/06/22 04:20:41;;;;;;;15.05;9.85;;;;;;;18.43;71.76;94419.41;4928717;29;20214;-72
2023/06/22 04:23:06;;;;;;;15.15;9.38;;;;;;;18.47;71.73;94417.56;4911836;29;20051;-72
2023/06/22 04:25:32;;;;;;;16.15;9.93;;;;;;;18.57;71.39;94418.97;4928963;29;20028;-72
2023/06/22 04:27:57;;;;;;;18.23;9.30;;;;;;;18.66;70.98;94414.16;4928632;29;20091;-72
2023/06/22 04:30:23;;;;;;;21.80;9.80;;;;;;;18.77;71.05;94407.09;4928676;29;20028;-72
2023/06/22 04:32:57;;;;;;;22.23;10.93;;;;;;;18.87;70.62;94403.09;4928797;29;20024;-72
2023/06/22 04:35:24;;;;;;;16.52;9.05;;;;;;;18.98;70.56;94398.69;4928789;29;20059;-72
2023/06/22 04:37:49;;;;;;;16.83;9.75;;;;;;;19.12;70.16;94402.84;4928565;29;20048;-72
2023/06/22 04:40:16;;;;;;;17.02;9.80;;;;;;;19.24;69.92;94410.81;4927657;29;20271;-72
2023/06/22 04:42:51;;;;;;;23.38;10.00;;;;;;;19.35;69.34;94411.81;4928196;29;20052;-72
2023/06/22 04:45:17;;;;;;;25.73;10.73;;;;;;;19.45;69.48;94411.25;4928451;29;20039;-72
2023/06/22 04:47:45;;;;;;;18.00;10.20;;;;;;;19.61;69.22;94423.94;4928410;29;20028;-73
2023/06/22 04:50:12;;;;;;;16.20;10.38;;;;;;;19.62;69.01;94420.88;4928008;29;20107;-73
2023/06/22 04:52:37;;;;;;;21.60;10.75;;;;;;;19.61;70.15;94423.94;4928319;29;20023;-73
2023/06/22 04:55:03;;;;;;;22.20;10.38;;;;;;;19.63;70.38;94421.66;4928067;29;20217;-73
2023/06/22 04:57:32;;;;;;;19.15;10.60;;;;;;;19.63;70.45;94418.94;4928028;29;20027;-74
2023/06/22 05:00:14;;;;;;;15.65;10.90;;;;;;;19.60;69.65;94433.16;4927960;29;20027;-74
2023/06/22 05:02:40;;;;;;;28.13;10.68;;;;;;;19.61;70.72;94427.41;4928599;29;20027;-74
2023/06/22 05:05:06;;;;;;;41.53;12.38;;;;;;;19.59;70.44;94431.59;4928104;29;20024;-74
2023/06/22 05:07:35;;;;;;;22.42;13.82;;;;;;;19.53;70.62;94435.72;4927485;29;20035;-71
2023/06/22 05:10:04;;;;;;;19.70;11.20;;;;;;;19.56;70.49;94437.72;4927766;29;20032;-73
2023/06/22 05:12:30;;;;;;;18.77;11.82;;;;;;;19.57;70.48;94431.97;4927946;29;20247;-73
2023/06/22 05:14:57;;;;;;;24.83;11.63;;;;;;;19.66;69.48;94434.44;4927732;29;20108;-73
2023/06/22 05:17:22;;;;;;;22.27;12.70;;;;;;;19.73;68.89;94437.31;4927798;29;20027;-73
2023/06/22 05:19:48;;;;;;;18.75;10.02;;;;;;;19.85;67.29;94425.56;4928019;29;20226;-73
2023/06/22 05:22:17;;;;;;;19.98;11.90;;;;;;;19.89;66.80;94429.13;4927321;29;20328;-72
2023/06/22 05:24:42;;;;;;;19.77;10.30;;;;;;;19.92;66.64;94435.75;4927499;29;20071;-72
2023/06/22 05:27:08;;;;;;;18.45;10.43;;;;;;;19.94;66.71;94434.22;4927950;29;20027;-72
2023/06/22 05:29:35;;;;;;;18.33;10.93;;;;;;;19.96;66.81;94429.25;4927743;29;20357;-71
2023/06/22 05:32:00;;;;;;;26.02;11.15;;;;;;;20.02;67.03;94435.16;4927639;29;20032;-71
2023/06/22 05:34:26;;;;;;;21.75;11.27;;;;;;;20.03;67.41;94444.84;4927444;29;20056;-72
2023/06/22 05:36:51;;;;;;;26.17;10.75;;;;;;;20.04;67.65;94444.47;4927440;29;20075;-71
2023/06/22 05:39:17;;;;;;;19.48;11.13;;;;;;;20.15;67.70;94457.41;4927356;29;20091;-71
2023/06/22 05:41:44;;;;;;;27.90;11.50;;;;;;;20.23;67.48;94453.69;4927530;29;20039;-71
2023/06/22 05:44:09;;;;;;;21.20;10.20;;;;;;;20.22;67.65;94455.63;4927441;29;20020;-71
2023/06/22 05:46:35;;;;;;;23.38;11.77;;;;;;;20.38;67.61;94463.63;4927643;29;20028;-71
2023/06/22 05:49:00;;;;;;;18.88;10.90;;;;;;;20.49;66.30;94458.38;4927791;29;20020;-72
2023/06/22 05:51:25;;;;;;;16.60;10.07;;;;;;;20.60;64.81;94472.94;4926880;29;20083;-73
2023/06/22 05:53:51;;;;;;;18.70;9.93;;;;;;;20.68;64.42;94465.72;4927206;29;20032;-72
2023/06/22 05:56:17;;;;;;;18.55;10.38;;;;;;;20.69;64.90;94469.19;4927095;29;20028;-72
2023/06/22 05:58:42;;;;;;;18.30;10.48;;;;;;;20.71;64.25;94469.63;4926909;29;20028;-72
2023/06/22 06:01:08;;;;;;;18.27;10.73;;;;;;;20.48;64.96;94466.91;4927193;29;20036;-72
2023/06/22 06:03:33;;;;;;;25.63;11.93;;;;;;;20.66;65.04;94461.78;4927203;29;20036;-71
2023/06/22 06:05:59;;;;;;;25.38;12.57;;;;;;;20.78;64.38;94461.59;4927109;29;20043;-72
2023/06/22 06:08:25;;;;;;;21.15;10.82;;;;;;;20.86;64.18;94468.69;4926730;29;20032;-72
2023/06/22 06:10:52;;;;;;;20.33;10.68;;;;;;;20.90;64.20;94461.38;4926650;29;20088;-65
2023/06/22 06:13:18;;;;;;;26.40;10.95;;;;;;;20.91;64.46;94454.06;4926141;29;20104;-65
2023/06/22 06:15:43;;;;;;;20.15;10.38;;;;;;;21.03;64.21;94446.50;4926081;29;20040;-65
2023/06/22 06:18:09;;;;;;;25.67;12.40;;;;;;;21.12;64.11;94448.94;4926135;29;20031;-66
2023/06/22 06:20:35;;;;;;;15.85;10.27;;;;;;;21.24;64.01;94447.94;4926166;29;20035;-66
2023/06/22 06:23:01;;;;;;;20.75;10.82;;;;;;;21.38;63.19;94440.00;4926199;29;20095;-66
2023/06/22 06:25:26;;;;;;;17.42;10.52;;;;;;;21.51;62.78;94445.22;4926087;29;20024;-66
2023/06/22 06:27:54;;;;;;;17.02;10.73;;;;;;;21.58;63.01;94439.91;4926094;29;20024;-65
2023/06/22 06:30:20;;;;;;;18.23;10.27;;;;;;;21.70;62.34;94447.78;4925761;29;20283;-66
2023/06/22 06:32:46;;;;;;;23.02;9.77;;;;;;;21.88;62.72;94455.34;4925821;29;20135;-66
2023/06/22 06:35:13;;;;;;;18.27;10.20;;;;;;;22.06;62.07;94448.19;4925548;29;20202;-66
2023/06/22 06:37:41;;;;;;;20.55;9.93;;;;;;;22.22;61.65;94448.72;4925831;29;20055;-67
2023/06/22 06:40:10;;;;;;;20.60;9.43;;;;;;;22.39;60.45;94446.63;4925636;29;20035;-67
2023/06/22 06:42:41;;;;;;;18.45;9.75;;;;;;;22.47;60.16;94445.53;4925378;29;20056;-67
2023/06/22 06:45:08;;;;;;;22.13;10.13;;;;;;;22.60;59.84;94441.34;4925874;29;20075;-68
2023/06/22 06:47:34;;;;;;;18.17;10.38;;;;;;;22.72;59.56;94440.28;4925883;29;20214;-68
2023/06/22 06:49:59;;;;;;;14.10;9.98;;;;;;;22.86;60.66;94426.03;4924957;29;20376;-72
2023/06/22 06:52:25;;;;;;;23.88;10.25;;;;;;;22.98;60.03;94435.81;4924112;29;20028;-72
2023/06/22 06:54:51;;;;;;;20.88;9.93;;;;;;;23.22;60.36;94434.44;4925126;29;20250;-73
2023/06/22 06:57:18;;;;;;;18.83;10.32;;;;;;;23.38;60.18;94426.75;4924500;29;20032;-71
2023/06/22 06:59:43;;;;;;;20.65;8.68;;;;;;;23.56;59.22;94426.06;4924556;29;20241;-72
2023/06/22 07:02:09;;;;;;;11.35;8.77;;;;;;;23.72;58.44;94431.97;4924740;29;20028;-72
2023/06/22 07:04:34;;;;;;;18.17;9.25;;;;;;;23.92;58.15;94428.94;4928364;29;20032;-72
2023/06/22 07:07:01;;;;;;;23.13;10.38;;;;;;;24.21;56.95;94421.63;4928263;29;20028;-72
2023/06/22 07:09:27;;;;;;;16.15;8.82;;;;;;;24.35;55.38;94429.81;4928399;29;20293;-72
2023/06/22 07:11:52;;;;;;;17.30;9.13;;;;;;;24.46;55.60;94423.59;4929900;29;20020;-72
2023/06/22 07:14:18;;;;;;;14.20;9.63;;;;;;;24.51;54.74;94431.44;4930195;29;20028;-72
2023/06/22 07:16:43;;;;;;;24.10;9.27;;;;;;;24.54;55.04;94425.97;4929851;29;20349;-72
2023/06/22 07:19:11;;;;;;;20.30;9.27;;;;;;;24.49;55.23;94431.78;4929791;29;20369;-71
2023/06/22 07:21:37;;;;;;;18.05;9.43;;;;;;;24.56;54.07;94434.53;4929642;29;20230;-72
2023/06/22 07:24:02;;;;;;;16.48;9.93;;;;;;;24.66;54.81;94432.97;4929657;29;20028;-71
2023/06/22 07:26:28;;;;;;;14.73;9.77;;;;;;;24.71;54.78;94427.16;4929572;29;20035;-72
2023/06/22 07:28:53;;;;;;;17.83;10.68;;;;;;;24.76;54.71;94429.47;4929514;29;20347;-71
2023/06/22 07:31:19;;;;;;;18.77;8.68;;;;;;;24.85;54.57;94429.06;4929391;29;20024;-71
2023/06/22 07:33:44;;;;;;;19.80;9.80;;;;;;;24.95;53.85;94419.31;4929524;29;20028;-72
2023/06/22 07:36:10;;;;;;;22.00;10.02;;;;;;;25.00;53.71;94422.44;4929815;29;20024;-72
2023/06/22 07:38:35;;;;;;;25.02;11.68;;;;;;;25.13;53.45;94432.94;4929291;29;20048;-72
2023/06/22 07:41:05;;;;;;;14.20;9.60;;;;;;;25.18;51.73;94440.75;4929458;29;20031;-72
2023/06/22 07:43:32;;;;;;;17.40;10.02;;;;;;;25.07;52.00;94439.97;4912575;29;20028;-71
2023/06/22 07:45:58;;;;;;;28.52;10.63;;;;;;;25.09;53.54;94435.66;4929111;29;20028;-72
2023/06/22 07:48:24;;;;;;;15.43;9.52;;;;;;;25.17;52.95;94430.97;4929315;29;20091;-72
2023/06/22 07:50:49;;;;;;;17.15;9.63;;;;;;;25.27;52.77;94440.34;4929066;29;20075;-71
2023/06/22 07:53:15;;;;;;;18.45;9.98;;;;;;;25.28;52.54;94444.63;4928928;29;20050;-72
2023/06/22 07:55:40;;;;;;;19.63;8.98;;;;;;;25.31;51.20;94435.66;4928607;29;20035;-71
2023/06/22 07:58:06;;;;;;;18.30;11.60;;;;;;;25.38;52.69;94443.81;4928599;29;20103;-71
2023/06/22 08:00:33;;;;;;;13.98;9.98;;;;;;;25.53;51.36;94437.16;4928855;29;20052;-71
2023/06/22 08:02:58;;;;;;;13.75;9.50;;;;;;;25.63;50.58;94432.84;4928442;29;20345;-71
2023/06/22 08:05:24;;;;;;;17.27;8.40;;;;;;;25.54;50.74;94435.97;4928725;29;20024;-71
2023/06/22 08:07:50;;;;;;;14.45;8.90;;;;;;;25.60;51.55;94431.69;4928576;29;20024;-71
2023/06/22 08:10:15;;;;;;;16.00;8.50;;;;;;;25.52;51.17;94429.38;4928682;29;20043;-72
2023/06/22 08:12:41;;;;;;;28.20;10.25;;;;;;;25.56;51.96;94424.66;4928278;29;20024;-71
2023/06/22 08:15:07;;;;;;;21.70;9.07;;;;;;;25.64;51.33;94418.00;4927301;29;20222;-72
2023/06/22 08:17:33;;;;;;;13.90;7.93;;;;;;;25.68;50.30;94418.78;4928760;29;20304;-72
2023/06/22 08:19:58;;;;;;;13.10;7.88;;;;;;;25.77;49.44;94424.59;4928521;29;20028;-72
2023/06/22 08:22:24;;;;;;;15.18;8.68;;;;;;;25.81;49.51;94416.41;4928570;29;20036;-72
2023/06/22 08:24:49;;;;;;;16.42;8.70;;;;;;;25.88;51.20;94421.81;4928476;29;20211;-72
2023/06/22 08:27:18;;;;;;;12.45;7.70;;;;;;;25.87;50.00;94412.06;4928326;29;20076;-72
2023/06/22 08:29:45;;;;;;;9.23;7.35;;;;;;;25.91;48.76;94414.78;4928140;29;20059;-72
2023/06/22 08:32:11;;;;;;;15.57;8.30;;;;;;;25.96;49.14;94406.19;4928199;29;20020;-72
2023/06/22 08:34:37;;;;;;;30.42;10.02;;;;;;;25.88;50.02;94399.19;4928209;29;20108;-72
2023/06/22 08:37:06;;;;;;;20.65;8.75;;;;;;;25.82;49.87;94405.06;4927979;29;20077;-72
2023/06/22 08:39:32;;;;;;;14.00;8.10;;;;;;;25.87;50.35;94408.53;4928529;29;20271;-72
2023/06/22 08:41:57;;;;;;;22.63;10.43;;;;;;;25.99;50.84;94411.66;4928203;29;20066;-72
2023/06/22 08:44:23;;;;;;;18.40;9.38;;;;;;;26.04;51.26;94413.19;4928059;29;20321;-72
2023/06/22 08:46:48;;;;;;;16.88;10.38;;;;;;;26.07;52.70;94414.31;4927980;29;20071;-72
2023/06/22 08:49:14;;;;;;;12.90;8.70;;;;;;;26.14;51.37;94422.50;4927940;29;20318;-72
2023/06/22 08:51:40;;;;;;;18.48;8.15;;;;;;;26.16;50.29;94420.13;4928024;29;20032;-72
2023/06/22 08:54:05;;;;;;;28.75;9.02;;;;;;;26.15;49.28;94413.88;4928465;29;20084;-72
2023/06/22 08:56:31;;;;;;;12.52;8.13;;;;;;;26.05;50.77;94406.53;4928166;29;20048;-72
2023/06/22 08:58:56;;;;;;;13.48;8.63;;;;;;;26.09;51.29;94414.72;4927925;29;20058;-72
2023/06/22 09:01:22;;;;;;;12.48;7.72;;;;;;;26.13;48.20;94408.03;4927839;29;20310;-72
2023/06/22 09:03:54;;;;;;;14.13;7.15;;;;;;;26.12;48.08;94403.78;4927718;29;20039;-72
2023/06/22 09:06:22;;;;;;;;;;;;;;;26.16;48.21;94388.13;4928263;29;20032;-72
2023/06/22 09:08:48;;;;;;;15.55;7.90;;;;;;;26.22;48.01;94386.53;4927594;29;20129;-72
2023/06/22 09:11:13;;;;;;;10.25;7.07;;;;;;;26.36;48.20;94384.88;4927554;29;20035;-72
2023/06/22 09:13:39;;;;;;;15.02;7.90;;;;;;;26.33;48.22;94380.22;4927764;29;20355;-72
2023/06/22 09:16:04;;;;;;;10.48;7.60;;;;;;;26.51;48.09;94385.56;4927757;29;20259;-72
2023/06/22 09:18:30;;;;;;;14.35;7.05;;;;;;;26.57;46.37;94390.19;4927629;29;20032;-72
2023/06/22 09:20:55;;;;;;;13.13;7.03;;;;;;;26.75;46.44;94395.53;4927515;29;20143;-72
2023/06/22 09:23:21;;;;;;;12.68;7.82;;;;;;;26.87;47.10;94396.19;4927248;29;20482;-72
2023/06/22 09:25:47;;;;;;;11.07;7.07;;;;;;;26.82;45.01;94383.75;4926957;29;20096;-72
2023/06/22 09:28:13;;;;;;;13.25;6.85;;;;;;;26.81;46.31;94391.19;4927243;29;20036;-72
2023/06/22 09:30:39;;;;;;;10.43;6.88;;;;;;;26.91;44.72;94389.53;4927382;29;20082;-72
2023/06/22 09:33:04;;;;;;;13.00;7.57;;;;;;;26.99;43.79;94393.75;4927457;29;20118;-72
2023/06/22 09:35:30;;;;;;;15.65;7.40;;;;;;;27.07;44.46;94399.13;4927136;29;20028;-72
2023/06/22 09:37:55;;;;;;;14.05;7.15;;;;;;;27.16;44.51;94399.44;4927067;29;20062;-72
2023/06/22 09:40:21;;;;;;;11.82;7.40;;;;;;;27.24;42.87;94409.16;4927247;29;20078;-72
2023/06/22 09:42:46;;;;;;;8.30;6.20;;;;;;;27.26;43.64;94411.50;4927084;29;20032;-72
2023/06/22 09:45:12;;;;;;;9.15;6.43;;;;;;;27.31;42.35;94403.59;4927015;29;20079;-72
2023/06/22 09:47:37;;;;;;;10.63;7.07;;;;;;;27.27;40.99;94397.38;4927208;29;20024;-72
2023/06/22 09:50:03;;;;;;;14.13;7.00;;;;;;;27.30;41.33;94402.06;4927218;29;20031;-72
2023/06/22 09:52:29;;;;;;;11.15;6.43;;;;;;;27.28;41.56;94398.97;4926896;29;20064;-72
2023/06/22 09:54:54;;;;;;;16.25;7.38;;;;;;;27.31;41.15;94395.41;4926792;29;20185;-72
2023/06/22 09:57:20;;;;;;;14.65;7.07;;;;;;;27.34;42.25;94389.13;4926852;29;20031;-72
2023/06/22 09:59:45;;;;;;;10.02;6.43;;;;;;;27.48;40.82;94387.38;4926808;29;20034;-72
2023/06/22 10:02:11;;;;;;;9.48;6.85;;;;;;;27.55;41.70;94388.09;4926597;29;20365;-72
2023/06/22 10:04:36;;;;;;;19.92;7.43;;;;;;;27.69;41.67;94389.88;4926839;29;20099;-72
2023/06/22 10:07:02;;;;;;;13.73;6.82;;;;;;;27.81;41.79;94392.06;4926935;29;20024;-72
2023/06/22 10:09:28;;;;;;;10.55;6.38;;;;;;;27.85;41.80;94394.00;4926681;29;20103;-72
2023/06/22 10:11:53;;;;;;;9.02;6.90;;;;;;;27.84;40.61;94387.72;4926530;29;20031;-72
2023/06/22 10:14:19;;;;;;;11.27;6.32;;;;;;;27.90;39.62;94380.63;4926671;29;20027;-72
2023/06/22 10:16:44;;;;;;;13.45;7.70;;;;;;;27.95;40.46;94388.41;4926549;29;20027;-72
2023/06/22 10:19:10;;;;;;;9.50;6.63;;;;;;;27.91;40.46;94381.44;4926280;29;20031;-72
2023/06/22 10:21:35;;;;;;;10.82;5.95;;;;;;;27.90;39.06;94372.41;4926523;29;20207;-72
2023/06/22 10:24:10;;;;;;;10.13;7.22;;;;;;;27.97;39.32;94372.34;4926619;29;20218;-72
2023/06/22 10:26:36;;;;;;;10.95;6.50;;;;;;;28.02;38.09;94373.81;4909517;29;20318;-71
2023/06/22 10:29:02;;;;;;;8.60;7.18;;;;;;;28.04;38.39;94376.94;4926707;29;20098;-72
2023/06/22 10:31:28;;;;;;;9.65;6.40;;;;;;;28.05;38.37;94372.22;4926265;29;20109;-72
2023/06/22 10:33:55;;;;;;;13.85;6.75;;;;;;;27.99;37.41;94369.19;4926179;29;20036;-72
2023/06/22 10:36:24;;;;;;;10.88;7.68;;;;;;;28.00;38.67;94365.25;4926221;29;20270;-72
2023/06/22 10:38:49;;;;;;;9.35;6.70;;;;;;;28.07;38.89;94369.84;4925780;29;20038;-72
2023/06/22 10:41:15;;;;;;;8.27;6.45;;;;;;;28.18;38.33;94368.50;4926229;29;20055;-72
2023/06/22 10:43:41;;;;;;;17.05;6.47;;;;;;;28.20;39.23;94363.38;4926334;29;20251;-72
2023/06/22 10:46:07;;;;;;;10.13;7.05;;;;;;;28.18;38.33;94354.03;4926200;29;20035;-72
2023/06/22 10:48:32;;;;;;;11.07;7.15;;;;;;;28.26;38.33;94360.97;4926361;29;20032;-72
2023/06/22 10:50:58;;;;;;;13.98;7.10;;;;;;;28.29;37.96;94348.38;4926193;29;20266;-72
2023/06/22 10:53:23;;;;;;;18.40;7.70;;;;;;;28.43;39.99;94359.13;4926228;29;20036;-72
2023/06/22 10:55:49;;;;;;;8.68;6.93;;;;;;;28.61;39.36;94348.66;4926119;29;20024;-72
2023/06/22 10:58:14;;;;;;;9.50;6.93;;;;;;;28.79;38.75;94348.38;4925949;29;20035;-72
2023/06/22 11:00:40;;;;;;;12.43;6.82;;;;;;;29.01;38.27;94354.25;4925918;29;20329;-72
2023/06/22 11:03:05;;;;;;;10.38;7.13;;;;;;;29.09;35.95;94345.91;4925764;29;20032;-72
2023/06/22 11:05:31;;;;;;;14.05;6.70;;;;;;;29.14;36.24;94351.69;4926093;29;20032;-72
2023/06/22 11:07:56;;;;;;;13.43;7.30;;;;;;;29.30;37.72;94348.25;4925767;29;20024;-72
2023/06/22 11:10:22;;;;;;;8.95;6.30;;;;;;;29.47;37.83;94345.56;4925825;29;20024;-72
2023/06/22 11:12:47;;;;;;;11.98;6.78;;;;;;;29.68;37.36;94342.41;4925773;29;20199;-72
2023/06/22 11:15:13;;;;;;;12.20;6.55;;;;;;;29.83;36.92;94339.38;4925752;29;20330;-72
2023/06/22 11:17:38;;;;;;;12.00;7.43;;;;;;;30.03;36.25;94336.59;4925821;29;20341;-72
2023/06/22 11:20:10;;;;;;;9.70;6.53;;;;;;;30.23;36.89;94339.28;4926045;29;20072;-71
2023/06/22 11:22:39;;;;;;;10.70;7.15;;;;;;;30.40;36.15;94343.59;4925558;29;20259;-71